San Antonio, Valles Caldera, New Mexico Weather observations

Data are for 10 minute period ending at time listed.
 Day   Time   Solar   Ave.   Ave.  Ave.  Vector  Max.   Baro.   Total    
  of    of     Rad.   Air    Rel.  Wind   Wind   Wind  Press.  Precip.   
Year   Day            Temp.  Hum.  Speed  Dir.   Gust                    
2015   (MST)  Kw/m2    F      %     mph   deg.    mph    mb.     in.     
-------------------------------------------------------------------------
  88   15:20   0.59   66.3    13   10.6   256    16.7   397.9    0.00 
  88   15:30   0.65   65.8    13   11.0   263    17.3   397.9    0.00 
  88   15:40   0.61   67.0    12   10.5   294    16.1   398.2    0.00 
  88   15:50   0.48   66.4    13   11.7   288    18.5   397.9    0.00 
  88   16:00   0.38   65.0    13    9.2   292    13.7   397.9    0.00 
  88   16:10   0.43   65.8    13    9.9   287    15.5   397.6    0.00 
  88   16:20   0.35   65.0    13    9.1   291    14.9   397.6    0.00 
  88   16:30   0.43   65.4    14    9.5   286    16.1   397.6    0.00 
  88   16:40   0.30   65.8    13    7.8   303    13.7   397.6    0.00 
  88   16:50   0.08   62.0    16    7.2   273    10.8   396.9    0.00 
  88   17:00   0.14   60.0    18    7.7   289    12.5   396.9    0.00 
  88   17:10   0.20   62.1    16    5.8   286     8.4   396.9    0.00 
  88   17:20   0.11   62.0    17    7.3   284    11.3   396.9    0.00 
  88   17:30   0.08   59.3    19    6.7   283    10.2   396.5    0.00 
  88   17:40   0.14   60.1    19    5.8   288     8.4   396.9    0.00 
  88   17:50   0.07   59.9    20    5.3   288     7.8   396.5    0.00 
  88   18:00   0.05   58.7    21    2.1   335     4.2   396.5    0.00 
  88   18:10   0.02   57.3    21    3.4   358     4.8   396.2    0.00 
  88   18:20   0.01   54.7    25    3.0    33     4.8   396.2    0.00 
  88   18:30   0.00   51.7    30    1.6    44     3.6   395.9    0.00 
  88   18:40   0.00   49.8    32    3.3    56     6.0   396.2    0.00 
  88   18:50   0.00   49.2    31    4.1    42     5.4   395.9    0.00 
  88   19:00   0.00   50.2    28    3.9    58     7.2   395.5    0.00 
  88   19:10   0.00   51.4    27    4.5    83    13.7   395.5    0.00 
  88   19:20   0.00   52.6    28    7.3    88    16.7   395.5    0.00 
  88   19:30   0.00   52.8    30   10.0   106    17.3   395.5    0.00 
  88   19:40   0.00   52.7    30   10.0   121    18.5   395.5    0.00 
  88   19:50   0.00   52.2    32    8.4   105    14.9   395.9    0.00 
  88   20:00   0.00   51.8    33    8.6   104    18.5   395.9    0.00 
  88   20:10   0.00   51.1    34    7.4    93    15.5   395.9    0.00 
  88   20:20   0.00   50.8    36    8.8    94    14.9   395.9    0.00 
  88   20:30   0.00   50.3    37    8.4    97    14.9   395.9    0.00 
  88   20:40   0.00   50.1    38    7.3    97    14.3   395.9    0.00 
  88   20:50   0.00   49.9    38    8.1    91    14.9   395.5    0.00 
  88   21:00   0.00   50.0    39    8.3   113    14.3   395.9    0.00 
  88   21:10   0.00   50.1    38    8.9   103    14.9   395.9    0.00 
  88   21:20   0.00   50.1    38    8.7    90    15.5   395.5    0.00 
  88   21:30   0.00   50.3    36    7.4    89    14.9   395.9    0.00 
  88   21:40   0.00   50.3    34    5.4    83    10.2   395.9    0.00 
  88   21:50   0.00   50.3    35    9.0   114    14.9   395.5    0.00 
  88   22:00   0.00   49.2    40    9.5   129    16.7   395.9    0.00 
  88   22:10   0.00   48.2    42    9.0   116    13.7   395.9    0.00 
  88   22:20   0.00   48.0    42    6.7    91    13.1   395.9    0.00 
  88   22:30   0.00   47.8    42    6.9    80    13.7   395.5    0.00 
  88   22:40   0.00   47.8    41    8.0    89    14.3   395.5    0.00 
  88   22:50   0.00   48.0    40    8.4    85    14.9   395.5    0.00 
  88   23:00   0.00   47.8    40    8.6    99    13.1   395.5    0.00 
  88   23:10   0.00   47.5    40    7.9    93    14.3   395.5    0.00 
  88   23:20   0.00   47.4    40    6.7    95    13.7   395.5    0.00 
  88   23:30   0.00   46.8    40    7.1    97    13.1   395.5    0.00 
  88   23:40   0.00   46.5    40    7.4    89    13.1   395.5    0.00 
  88   23:50   0.00   46.4    40    7.1    88    12.5   395.5    0.00 
  89    0:00   0.00   46.0    40    9.1    87    14.9   395.5    0.00 
  89    0:10   0.00   45.6    40    9.0   101    14.9   395.5    0.00 
  89    0:20   0.00   45.0    41   10.0   107    16.1   395.2    0.00 
  89    0:30   0.00   44.5    41    9.8   104    16.7   395.2    0.00 
  89    0:40   0.00   44.3    40    9.7    99    18.5   395.2    0.00 
  89    0:50   0.00   44.0    40    8.5    95    13.7   395.2    0.00 
  89    1:00   0.00   43.7    41    8.8    94    14.9   395.2    0.00 
  89    1:10   0.00   43.3    41    8.2   100    13.1   395.2    0.00 
  89    1:20   0.00   43.1    42    8.5    99    14.3   395.2    0.00 
  89    1:30   0.00   42.6    42    8.7   108    13.7   395.2    0.00 
  89    1:40   0.00   42.2    43    9.5   104    14.9   395.2    0.00 
  89    1:50   0.00   42.1    43    9.2   101    14.3   395.2    0.00 
  89    2:00   0.00   41.7    43    8.1    98    12.5   395.2    0.00 
  89    2:10   0.00   41.7    43    8.7    96    13.1   395.2    0.00 
  89    2:20   0.00   41.8    42    8.0    98    11.3   395.2    0.00 
  89    2:30   0.00   41.8    42    8.2    95    13.7   394.9    0.00 
  89    2:40   0.00   41.7    42    8.1   106    11.9   394.9    0.00 
  89    2:50   0.00   41.4    43    6.9    96    11.9   394.9    0.00 
  89    3:00   0.00   41.4    42    6.4   103    10.2   395.2    0.00 
  89    3:10   0.00   38.6    48    6.6   109     9.6   394.9    0.00 
  89    3:20   0.00   40.4    44    7.0   106    10.2   394.9    0.00 
  89    3:30   0.00   35.3    56    4.8   127     7.8   394.9    0.00 
  89    3:40   0.00   32.4    63    4.5   125     8.4   395.2    0.00 
  89    3:50   0.00   32.7    62    2.2    20     3.6   394.9    0.00 
  89    4:00   0.00   33.1    61    2.1   276     4.2   394.9    0.00 
  89    4:10   0.00   33.1    61    1.7   327     3.6   394.9    0.00 
  89    4:20   0.00   32.1    64    2.6   287     4.8   394.9    0.00 
  89    4:30   0.00   32.1    64    1.1    41     2.4   394.9    0.00 
  89    4:40   0.00   32.2    63    1.2   174     3.0   394.9    0.00 
  89    4:50   0.00   30.9    67    1.3    46     3.0   394.9    0.00 
  89    5:00   0.00   30.5    67    1.5    90     3.0   395.2    0.00 
  89    5:10   0.00   30.7    67    2.1    28     4.8   394.9    0.00 
  89    5:20   0.00   30.7    67    2.8    40     4.2   395.2    0.00 
  89    5:30   0.00   29.7    69    1.9   312     3.6   395.2    0.00 
  89    5:40   0.00   27.8    74    0.9    45     2.4   395.2    0.00 
  89    5:50   0.00   27.7    75    1.7    18     3.0   395.2    0.00 
  89    6:00   0.00   27.4    75    1.2   138     3.0   395.2    0.00 
  89    6:10   0.01   27.1    76    1.0   352     2.4   395.5    0.00 
  89    6:20   0.02   27.4    76    0.9    29     3.6   395.5    0.00 
  89    6:30   0.03   28.0    75    0.9   345     3.0   395.2    0.00 
  89    6:40   0.05   28.1    75    0.2   143     1.2   395.2    0.00 
  89    6:50   0.06   28.4    77    0.2   184     1.2   395.5    0.00 
  89    7:00   0.05   28.8    75    0.0     0     0.0   395.5    0.00 
  89    7:10   0.08   29.9    74    1.0   321     3.0   395.5    0.00 
  89    7:20   0.23   34.9    65    0.5   288     1.8   395.5    0.00 
  89    7:30   0.28   39.7    54    1.2   254     3.6   395.5    0.00 
  89    7:40   0.32   41.7    51    0.6   265     1.8   395.5    0.00 
  89    7:50   0.35   45.3    46    1.3   304     2.4   395.5    0.00 
  89    8:00   0.39   48.6    40    1.5   264     2.4   395.9    0.00 
  89    8:10   0.42   48.3    41    1.2   161     3.0   395.9    0.00 
  89    8:20   0.46   50.1    38    1.6   243     3.6   395.9    0.00 
  89    8:30   0.49   52.1    37    1.5   207     3.0   396.2    0.00 
  89    8:40   0.53   52.6    36    2.8   265     4.8   396.2    0.00 
  89    8:50   0.56   53.8    33    2.3   242     4.2   396.5    0.00 
  89    9:00   0.59   56.4    27    3.1   301     5.4   396.5    0.00 
  89    9:10   0.62   58.5    23    3.0   271     6.6   396.9    0.00 
  89    9:20   0.65   61.1    21    4.6   305     7.2   396.9    0.00 
  89    9:30   0.68   59.6    22    3.8   223     8.4   397.2    0.00 
  89    9:40   0.71   59.4    21    5.1   237    10.8   397.2    0.00 
  89    9:50   0.73   59.2    21    6.0   258    11.9   397.2    0.00 
  89   10:00   0.77   60.9    20    6.0   259    12.5   397.2    0.00 
  89   10:10   0.82   60.8    20    4.8   229    11.9   397.6    0.00 
  89   10:20   0.86   60.2    21    6.4   225    11.3   397.6    0.00 
  89   10:30   0.92   60.4    22    8.4   205    18.5   397.6    0.00 
  89   10:40   0.95   61.4    22    8.1   195    14.3   397.9    0.00 
  89   10:50   0.93   61.3    20    7.0   234    14.9   397.9    0.00 
  89   11:00   0.37   60.7    19    6.3   304    10.2   397.2    0.00 
  89   11:10   0.24   58.0    20    6.5   340    11.3   396.9    0.00 
  89   11:20   0.41   57.8    20    5.3   338    11.3   396.9    0.00 
  89   11:30   0.27   58.3    20    6.1   317    13.7   396.5    0.00 
  89   11:40   0.56   59.3    21    4.0   349     9.0   396.9    0.00 
  89   11:50   0.39   59.7    20    8.9   310    17.3   396.9    0.00 
  89   12:00   0.25   58.3    22    6.2   316    10.8   396.5    0.00 
  89   12:10   0.29   58.2    22    6.4   307    10.2   396.5    0.00 
  89   12:20   0.47   58.7    22    7.8   289    12.5   396.9    0.00 
  89   12:30   0.36   59.2    21    9.2   290    13.7   396.9    0.00 
  89   12:40   0.40   58.3    21    7.1   315    11.9   396.5    0.00 
  89   12:50   0.46   59.6    20    5.2   323    10.2   396.9    0.00 
  89   13:00   0.44   59.3    20    5.8   290    14.3   396.5    0.00 
  89   13:10   0.77   59.5    26    6.1   132    11.9   397.2    0.00 
  89   13:20   0.22   56.7    28   10.7   116    15.5   396.9    0.00 
  89   13:30   0.16   55.0    29    6.8   117    11.3   396.5    0.00 
  89   13:40   0.48   55.6    28    7.6   106    12.5   396.9    0.00 
  89   13:50   0.55   56.5    27    7.8   123    13.7   396.9    0.00 
  89   14:00   0.86   58.9    25    7.4   129    12.5   397.2    0.00 
  89   14:10   0.86   59.7    24    7.1   150    14.3   397.6    0.00 
  89   14:20   0.81   61.3    22    5.1   123     9.0   397.6    0.00 
  89   14:30   0.30   60.4    20    4.6    63    10.2   397.2    0.00 
  89   14:40   0.15   58.9    20    8.1   303    13.1   396.9    0.00 
  89   14:50   0.15   57.8    20    9.0   295    14.9   396.5    0.00 
  89   15:00   0.26   57.7    21    8.4   295    14.9   396.5    0.00 
  89   15:10   0.29   58.4    20    8.2   246    17.3   396.9    0.00 

Return to San Antonio, Valles Caldera graphs page.


Western Regional Climate Center,wrcc@dri.edu